createdAt,value
2022-12-01T00:01:37.498Z,25.40
2022-12-01T00:04:05.911Z,21.58
2022-12-01T00:06:35.933Z,22.30
2022-12-01T00:09:22.522Z,21.98
2022-12-01T00:11:57.444Z,18.20
2022-12-01T00:14:26.574Z,16.80
2022-12-01T00:16:54.714Z,14.82
2022-12-01T00:19:26.154Z,14.48
2022-12-01T00:21:56.144Z,13.75
2022-12-01T00:24:25.403Z,12.88
2022-12-01T00:26:54.436Z,14.35
2022-12-01T00:29:23.770Z,13.85
2022-12-01T00:31:53.855Z,13.48
2022-12-01T00:34:24.451Z,13.90
2022-12-01T00:36:54.556Z,15.15
2022-12-01T00:39:22.652Z,13.57
2022-12-01T00:41:50.654Z,13.23
2022-12-01T00:44:18.653Z,13.85
2022-12-01T00:46:48.059Z,13.65
2022-12-01T00:49:19.061Z,14.05
2022-12-01T00:51:52.041Z,13.68
2022-12-01T00:54:23.121Z,14.63
2022-12-01T00:56:52.172Z,15.07
2022-12-01T00:59:24.091Z,14.05
2022-12-01T01:01:55.447Z,14.75
2022-12-01T01:04:25.728Z,13.73
2022-12-01T01:06:53.726Z,13.38
2022-12-01T01:09:21.735Z,13.70
2022-12-01T01:11:55.080Z,12.57
2022-12-01T01:14:24.925Z,13.80
2022-12-01T01:16:57.424Z,13.95
2022-12-01T01:19:25.399Z,15.10
2022-12-01T01:21:53.364Z,13.93
2022-12-01T01:24:22.360Z,14.80
2022-12-01T01:26:51.279Z,14.63
2022-12-01T01:29:20.259Z,14.68
2022-12-01T01:31:48.527Z,15.20
2022-12-01T01:34:18.838Z,15.60
2022-12-01T01:36:46.840Z,16.00
2022-12-01T01:39:15.940Z,14.43
2022-12-01T01:41:44.000Z,15.48
2022-12-01T01:44:54.543Z,14.00
2022-12-01T01:47:27.587Z,12.98
2022-12-01T01:50:06.652Z,11.63
2022-12-01T01:52:36.720Z,11.77
2022-12-01T01:55:04.988Z,11.48
2022-12-01T01:57:35.134Z,11.48
2022-12-01T02:03:47.341Z,11.90
2022-12-01T02:06:18.148Z,10.98
2022-12-01T02:08:46.152Z,11.27
2022-12-01T02:11:48.727Z,11.07
2022-12-01T02:14:35.189Z,10.73
2022-12-01T02:17:10.922Z,9.93
2022-12-01T02:20:03.863Z,10.20
2022-12-01T02:22:42.974Z,11.35
2022-12-01T02:25:21.656Z,10.30
2022-12-01T02:28:14.727Z,10.88
2022-12-01T02:30:46.496Z,10.57
2022-12-01T02:33:20.921Z,10.75
2022-12-01T02:35:53.565Z,11.18
2022-12-01T02:38:30.820Z,11.43
2022-12-01T02:41:06.871Z,10.88
2022-12-01T02:46:12.325Z,9.55
2022-12-01T02:48:43.077Z,9.00
2022-12-01T02:51:15.477Z,10.27
2022-12-01T02:53:44.673Z,9.93
2022-12-01T02:56:16.127Z,10.65
2022-12-01T02:58:44.679Z,10.05
2022-12-01T03:01:50.912Z,11.40
2022-12-01T03:04:47.407Z,9.75
2022-12-01T03:07:33.248Z,11.50
2022-12-01T03:10:07.455Z,11.25
2022-12-01T03:12:42.602Z,10.52
2022-12-01T03:15:18.852Z,9.52
2022-12-01T03:17:55.079Z,10.95
2022-12-01T03:20:29.990Z,11.10
2022-12-01T03:23:02.313Z,10.30
2022-12-01T03:25:32.036Z,10.23
2022-12-01T03:28:22.162Z,11.10
2022-12-01T03:30:53.824Z,10.43
2022-12-01T03:33:28.606Z,10.05
2022-12-01T03:36:00.979Z,10.77
2022-12-01T03:38:30.699Z,10.50
2022-12-01T03:41:03.127Z,8.20
2022-12-01T03:43:35.527Z,8.32
2022-12-01T03:46:11.102Z,9.30
2022-12-01T03:48:41.557Z,8.50
2022-12-01T03:51:15.233Z,8.63
2022-12-01T03:53:52.397Z,8.88
2022-12-01T03:56:22.769Z,8.38
2022-12-01T03:58:56.379Z,8.20
2022-12-01T04:01:26.553Z,7.38
2022-12-01T04:03:55.998Z,6.72
2022-12-01T04:06:24.011Z,6.82
2022-12-01T04:08:52.062Z,6.78
2022-12-01T04:11:37.553Z,6.32
2022-12-01T04:14:05.556Z,5.97
2022-12-01T04:16:35.523Z,6.30
2022-12-01T04:19:08.344Z,5.90
2022-12-01T04:21:36.345Z,5.75
2022-12-01T04:24:44.553Z,5.78
2022-12-01T04:28:19.795Z,6.13
2022-12-01T04:31:12.514Z,6.07
2022-12-01T04:33:40.539Z,7.40
2022-12-01T04:36:11.481Z,8.88
2022-12-01T04:38:40.445Z,7.72
2022-12-01T04:41:11.534Z,9.32
2022-12-01T04:43:46.349Z,7.30
2022-12-01T04:46:19.405Z,7.35
2022-12-01T04:48:47.335Z,7.13
2022-12-01T04:51:17.891Z,8.18
2022-12-01T04:53:48.082Z,8.25
2022-12-01T04:56:20.062Z,8.25
2022-12-01T04:58:48.054Z,7.53
2022-12-01T05:01:18.191Z,8.43
2022-12-01T05:03:52.327Z,8.40
2022-12-01T05:06:23.554Z,9.02
2022-12-01T05:08:52.456Z,7.47
2022-12-01T05:11:21.506Z,8.52
2022-12-01T05:13:50.422Z,8.15
2022-12-01T05:16:21.783Z,8.93
2022-12-01T05:18:51.245Z,9.60
2022-12-01T05:21:18.402Z,9.57
2022-12-01T05:23:48.888Z,9.85
2022-12-01T05:26:17.945Z,9.70
2022-12-01T05:28:45.875Z,9.75
2022-12-01T05:31:13.921Z,9.88
2022-12-01T05:33:41.871Z,10.25
2022-12-01T05:36:10.627Z,10.73
2022-12-01T05:38:38.636Z,9.38
2022-12-01T05:41:08.112Z,10.10
2022-12-01T05:43:36.370Z,8.93
2022-12-01T05:46:04.486Z,9.25
2022-12-01T05:48:32.516Z,11.65
2022-12-01T05:51:01.553Z,9.88
2022-12-01T05:53:29.561Z,10.40
2022-12-01T05:55:57.596Z,11.32
2022-12-01T05:58:26.997Z,11.00
2022-12-01T06:00:55.279Z,13.30
2022-12-01T06:03:23.321Z,12.57
2022-12-01T06:05:51.737Z,13.30
2022-12-01T06:08:21.795Z,14.75
2022-12-01T06:10:51.180Z,12.60
2022-12-01T06:13:19.193Z,13.82
2022-12-01T06:15:57.215Z,11.75
2022-12-01T06:18:27.261Z,11.63
2022-12-01T06:20:59.005Z,9.10
2022-12-01T06:23:31.423Z,8.63
2022-12-01T06:25:59.738Z,7.65
2022-12-01T06:28:28.759Z,7.38
2022-12-01T06:31:03.216Z,8.15
2022-12-01T06:33:32.008Z,7.20
2022-12-01T06:36:01.743Z,8.20
2022-12-01T06:38:32.878Z,8.18
2022-12-01T06:41:01.167Z,8.30
2022-12-01T06:43:29.119Z,13.02
2022-12-01T06:46:02.045Z,11.88
2022-12-01T06:48:32.679Z,14.48
2022-12-01T06:51:05.057Z,13.95
2022-12-01T06:53:34.102Z,14.20
2022-12-01T06:56:02.226Z,14.93
2022-12-01T06:58:30.594Z,14.45
2022-12-01T07:01:00.351Z,14.40
2022-12-01T07:03:28.445Z,22.10
2022-12-01T07:05:58.777Z,19.40
2022-12-01T07:08:27.309Z,16.60
2022-12-01T07:11:00.502Z,15.68
2022-12-01T07:13:33.690Z,15.52
2022-12-01T07:16:04.117Z,13.73
2022-12-01T07:18:33.043Z,13.68
2022-12-01T07:21:02.587Z,13.50
2022-12-01T07:23:36.315Z,9.80
2022-12-01T07:26:06.925Z,10.00
2022-12-01T07:28:35.193Z,9.23
2022-12-01T07:31:07.615Z,11.02
2022-12-01T07:33:36.472Z,12.00
2022-12-01T07:36:05.771Z,11.70
2022-12-01T07:38:35.543Z,11.27
2022-12-01T07:41:04.653Z,10.48
2022-12-01T07:43:36.183Z,10.07
2022-12-01T07:46:14.686Z,9.20
2022-12-01T07:48:47.031Z,10.60
2022-12-01T07:51:17.293Z,11.05
2022-12-01T07:53:46.283Z,12.68
2022-12-01T07:56:17.046Z,13.68
2022-12-01T07:58:45.530Z,12.15
2022-12-01T08:01:17.170Z,11.90
2022-12-01T08:03:46.268Z,10.93
2022-12-01T08:06:14.335Z,11.27
2022-12-01T08:08:42.880Z,10.85
2022-12-01T08:11:13.924Z,10.95
2022-12-01T08:13:46.161Z,11.27
2022-12-01T08:16:19.277Z,11.18
2022-12-01T08:18:47.474Z,10.40
2022-12-01T08:21:18.756Z,9.65
2022-12-01T08:23:47.302Z,11.25
2022-12-01T08:26:17.347Z,8.70
2022-12-01T08:28:46.843Z,10.25
2022-12-01T08:31:18.799Z,10.48
2022-12-01T08:33:47.442Z,11.65
2022-12-01T08:36:15.756Z,10.38
2022-12-01T08:38:45.734Z,12.10
2022-12-01T08:41:14.719Z,11.13
2022-12-01T08:44:00.966Z,13.73
2022-12-01T08:46:33.620Z,11.45
2022-12-01T08:49:02.222Z,13.68
2022-12-01T08:51:30.672Z,11.77
2022-12-01T08:54:00.385Z,11.85
2022-12-01T08:56:30.673Z,11.57
2022-12-01T08:58:59.046Z,12.02
2022-12-01T09:01:27.186Z,13.27
2022-12-01T09:04:08.695Z,12.30
2022-12-01T09:06:41.242Z,12.80
2022-12-01T09:09:14.545Z,13.88
2022-12-01T09:11:43.900Z,13.20
2022-12-01T09:14:12.449Z,11.38
2022-12-01T09:16:41.040Z,11.57
2022-12-01T09:19:13.063Z,11.80
2022-12-01T09:21:42.781Z,11.82
2022-12-01T09:24:12.436Z,11.50
2022-12-01T09:26:40.509Z,12.30
2022-12-01T09:29:10.891Z,11.90
2022-12-01T09:31:40.545Z,10.55
2022-12-01T09:34:13.154Z,11.90
2022-12-01T09:36:41.702Z,11.52
2022-12-01T09:39:13.132Z,12.93
2022-12-01T09:41:46.301Z,11.85
2022-12-01T09:44:22.023Z,11.35
2022-12-01T09:46:54.881Z,12.25
2022-12-01T09:49:32.296Z,12.85
2022-12-01T09:52:01.375Z,12.40
2022-12-01T09:54:30.451Z,11.82
2022-12-01T09:57:00.375Z,12.27
2022-12-01T09:59:34.073Z,12.55
2022-12-01T10:02:04.464Z,12.68
2022-12-01T10:04:37.490Z,11.77
2022-12-01T10:07:12.445Z,10.52
2022-12-01T10:09:48.862Z,10.60
2022-12-01T10:12:19.428Z,10.88
2022-12-01T10:14:49.490Z,10.00
2022-12-01T10:17:29.306Z,9.63
2022-12-01T10:20:04.252Z,9.98
2022-12-01T10:23:10.006Z,10.57
2022-12-01T10:25:46.595Z,10.68
2022-12-01T10:28:36.294Z,10.43
2022-12-01T10:31:12.552Z,10.02
2022-12-01T10:33:47.779Z,10.93
2022-12-01T10:36:17.077Z,11.13
2022-12-01T10:38:45.091Z,10.95
2022-12-01T10:41:16.409Z,10.02
2022-12-01T10:43:47.172Z,11.40
2022-12-01T10:46:23.771Z,11.27
2022-12-01T10:48:56.847Z,9.38
2022-12-01T10:51:27.974Z,10.45
2022-12-01T10:54:00.922Z,10.70
2022-12-01T10:56:29.352Z,9.88
2022-12-01T10:58:59.711Z,9.27
2022-12-01T11:01:31.043Z,9.95
2022-12-01T11:04:14.568Z,11.07
2022-12-01T11:06:50.937Z,9.70
2022-12-01T11:09:26.213Z,11.13
2022-12-01T11:11:59.426Z,10.38
2022-12-01T11:14:36.520Z,10.48
2022-12-01T11:17:18.045Z,10.60
2022-12-01T11:19:46.268Z,9.98
2022-12-01T11:22:23.204Z,9.82
2022-12-01T11:24:59.612Z,9.57
2022-12-01T11:27:30.948Z,9.73
2022-12-01T11:30:02.822Z,9.82
2022-12-01T11:32:35.093Z,9.55
2022-12-01T11:35:07.160Z,10.07
2022-12-01T11:37:39.550Z,9.88
2022-12-01T11:40:14.962Z,9.95
2022-12-01T11:42:47.774Z,9.73
2022-12-01T11:45:27.284Z,9.60
2022-12-01T11:48:05.042Z,7.65
2022-12-01T11:50:35.513Z,8.32
2022-12-01T11:53:05.714Z,9.30
2022-12-01T11:55:34.245Z,9.27
2022-12-01T11:58:05.246Z,8.85
2022-12-01T12:00:44.920Z,9.10
2022-12-01T12:03:22.598Z,10.07
2022-12-01T12:06:31.798Z,9.27
2022-12-01T12:09:25.820Z,8.93
2022-12-01T12:12:08.370Z,9.02
2022-12-01T12:14:48.620Z,10.25
2022-12-01T12:17:29.386Z,29.67
2022-12-01T12:20:09.617Z,15.30
2022-12-01T12:22:55.199Z,15.23
2022-12-01T12:25:31.783Z,10.80
2022-12-01T12:30:43.870Z,8.50
2022-12-01T12:33:38.466Z,8.48
2022-12-01T12:36:16.350Z,9.05
2022-12-01T12:38:58.314Z,9.82
2022-12-01T12:41:32.989Z,10.15
2022-12-01T12:44:35.384Z,9.02
2022-12-01T12:47:10.637Z,10.13
2022-12-01T12:49:45.545Z,10.32
2022-12-01T12:52:17.249Z,13.20
2022-12-01T12:54:51.963Z,10.55
2022-12-01T12:57:28.617Z,10.73
2022-12-01T13:00:01.458Z,11.52
2022-12-01T13:02:36.265Z,10.88
2022-12-01T13:05:10.430Z,10.50
2022-12-01T13:07:44.256Z,10.88
2022-12-01T13:10:23.216Z,11.35
2022-12-01T13:12:58.195Z,11.48
2022-12-01T13:15:30.732Z,11.07
2022-12-01T13:18:04.706Z,12.75
2022-12-01T13:20:35.166Z,85.57
2022-12-01T13:23:04.334Z,13.50
2022-12-01T13:25:36.155Z,12.75
2022-12-01T13:28:06.750Z,16.67
2022-12-01T13:30:36.179Z,13.55
2022-12-01T13:33:06.708Z,13.55
2022-12-01T13:35:37.493Z,12.98
2022-12-01T13:38:24.896Z,13.05
2022-12-01T13:41:11.584Z,12.65
2022-12-01T13:43:54.490Z,12.70
2022-12-01T13:46:27.764Z,12.35
2022-12-01T13:48:58.079Z,15.75
2022-12-01T13:51:27.054Z,14.48
2022-12-01T13:54:05.507Z,15.98
2022-12-01T13:56:41.153Z,12.88
2022-12-01T13:59:40.815Z,192.40
2022-12-01T14:02:18.375Z,16.23
2022-12-01T14:04:48.336Z,14.63
2022-12-01T14:07:35.836Z,14.63
2022-12-01T14:10:26.397Z,14.13
2022-12-01T14:12:59.405Z,18.20
2022-12-01T14:15:40.427Z,19.95
2022-12-01T14:18:23.861Z,17.67
2022-12-01T14:20:52.219Z,15.43
2022-12-01T14:23:29.294Z,15.05
2022-12-01T14:26:12.856Z,17.88
2022-12-01T14:29:10.984Z,20.67
2022-12-01T14:32:19.468Z,21.85
2022-12-01T14:34:52.697Z,21.23
2022-12-01T14:37:23.021Z,21.38
2022-12-01T14:39:57.328Z,22.30
2022-12-01T14:42:48.490Z,19.75
2022-12-01T14:45:23.038Z,21.67
2022-12-01T14:47:58.236Z,23.95
2022-12-01T14:50:35.461Z,24.38
2022-12-01T14:53:10.373Z,59.13
2022-12-01T14:55:41.720Z,37.67
2022-12-01T14:58:16.698Z,117.78
2022-12-01T15:00:57.974Z,37.50
2022-12-01T15:03:32.006Z,16.13
2022-12-01T15:06:01.717Z,17.38
2022-12-01T15:09:04.109Z,17.73
2022-12-01T15:11:26.068Z,18.63
2022-12-01T15:13:55.613Z,14.82
2022-12-01T15:16:27.501Z,14.93
2022-12-01T15:18:57.893Z,16.10
2022-12-01T15:21:29.396Z,13.95
2022-12-01T15:24:00.897Z,14.38
2022-12-01T15:26:32.055Z,13.45
2022-12-01T15:29:14.627Z,13.25
2022-12-01T15:31:44.063Z,14.25
2022-12-01T15:34:17.285Z,16.13
2022-12-01T15:36:48.538Z,15.75
2022-12-01T15:39:18.221Z,16.35
2022-12-01T15:41:53.813Z,17.50
2022-12-01T15:44:27.327Z,17.95
2022-12-01T15:46:55.809Z,18.42
2022-12-01T15:49:29.705Z,18.65
2022-12-01T15:52:12.515Z,18.38
2022-12-01T15:54:41.046Z,34.70
2022-12-01T15:57:09.387Z,36.42
2022-12-01T15:59:45.072Z,24.88
2022-12-01T16:02:27.435Z,26.55
2022-12-01T16:05:05.527Z,24.27
2022-12-01T16:08:12.126Z,23.15
2022-12-01T16:10:30.756Z,23.73
2022-12-01T16:13:47.713Z,23.67
2022-12-01T16:16:41.040Z,21.90
2022-12-01T16:19:28.176Z,23.45
2022-12-01T16:22:00.473Z,22.80
2022-12-01T16:24:32.442Z,23.33
2022-12-01T16:27:03.397Z,24.98
2022-12-01T16:29:35.672Z,22.85
2022-12-01T16:32:20.152Z,21.42
2022-12-01T16:34:50.214Z,23.52
2022-12-01T16:37:18.780Z,24.13
2022-12-01T16:39:48.749Z,23.30
2022-12-01T16:42:18.828Z,25.52
2022-12-01T16:44:48.721Z,27.67
2022-12-01T16:47:20.407Z,26.08
2022-12-01T16:49:48.826Z,29.38
2022-12-01T16:52:43.546Z,28.45
2022-12-01T16:55:26.013Z,26.98
2022-12-01T16:57:55.456Z,29.98
2022-12-01T17:00:24.007Z,29.98
2022-12-01T17:02:53.725Z,29.45
2022-12-01T17:05:22.084Z,28.40
2022-12-01T17:07:50.425Z,27.63
2022-12-01T17:10:20.170Z,30.55
2022-12-01T17:12:48.204Z,31.75
2022-12-01T17:15:16.407Z,30.35
2022-12-01T17:17:44.563Z,30.13
2022-12-01T17:20:13.204Z,33.10
2022-12-01T17:22:41.273Z,31.60
2022-12-01T17:25:10.877Z,31.35
2022-12-01T17:27:42.004Z,30.50
2022-12-01T17:30:11.017Z,32.08
2022-12-01T17:32:39.618Z,30.50
2022-12-01T17:35:08.620Z,31.27
2022-12-01T17:37:38.669Z,29.95
2022-12-01T17:40:08.793Z,31.17
2022-12-01T17:42:37.180Z,31.35
2022-12-01T17:45:07.925Z,31.35
2022-12-01T17:47:36.154Z,32.03
2022-12-01T17:50:04.557Z,30.92
2022-12-01T17:52:32.758Z,41.70
2022-12-01T17:55:00.919Z,36.10
2022-12-01T17:57:29.080Z,32.67
2022-12-01T17:59:57.264Z,30.08
2022-12-01T18:02:26.674Z,32.83
2022-12-01T18:04:55.058Z,36.72
2022-12-01T18:07:23.380Z,46.65
2022-12-01T18:09:51.562Z,42.75
2022-12-01T18:12:19.828Z,35.17
2022-12-01T18:14:48.045Z,36.35
2022-12-01T18:20:46.558Z,30.15
2022-12-01T18:23:14.802Z,33.47
2022-12-01T18:25:42.937Z,35.15
2022-12-01T18:28:11.474Z,33.75
2022-12-01T18:46:40.413Z,36.70
2022-12-01T18:53:23.142Z,35.38
2022-12-01T18:55:51.424Z,35.30
2022-12-01T18:58:19.477Z,34.50
2022-12-01T19:00:47.635Z,34.20
2022-12-01T19:03:17.192Z,34.72
2022-12-01T19:05:45.302Z,37.50
2022-12-01T19:08:13.435Z,39.45
2022-12-01T19:10:41.605Z,42.53
2022-12-01T19:13:09.769Z,40.58
2022-12-01T19:15:38.570Z,51.13
2022-12-01T19:18:06.731Z,46.75
2022-12-01T19:20:39.766Z,49.85
2022-12-01T19:23:07.817Z,51.80
2022-12-01T19:25:38.915Z,40.65
2022-12-01T19:28:07.148Z,37.95
2022-12-01T19:30:35.609Z,35.53
2022-12-01T19:33:03.790Z,35.22
2022-12-01T19:35:32.825Z,36.65
2022-12-01T19:38:02.272Z,38.78
2022-12-01T19:40:39.124Z,38.95
2022-12-01T19:43:07.388Z,48.00
2022-12-01T19:45:38.691Z,52.03
2022-12-01T19:48:07.826Z,56.38
2022-12-01T19:50:36.698Z,52.92
2022-12-01T19:53:06.263Z,58.33
2022-12-01T19:55:34.671Z,54.88
2022-12-01T19:58:04.122Z,58.50
2022-12-01T20:00:32.775Z,59.03
2022-12-01T20:03:01.806Z,53.63
2022-12-01T20:05:29.941Z,53.25
2022-12-01T20:07:58.498Z,42.85
2022-12-01T20:10:28.094Z,41.20
2022-12-01T20:12:56.276Z,46.60
2022-12-01T20:15:24.547Z,49.30
2022-12-01T20:17:53.926Z,55.33
2022-12-01T20:20:26.126Z,57.13
2022-12-01T20:22:54.404Z,61.22
2022-12-01T20:25:22.835Z,61.15
2022-12-01T20:27:52.513Z,59.78
2022-12-01T20:30:20.789Z,61.33
2022-12-01T20:32:49.978Z,57.00
2022-12-01T20:35:20.294Z,59.90
2022-12-01T20:37:52.823Z,55.85
2022-12-01T20:40:22.436Z,53.05
2022-12-01T20:42:52.544Z,57.25
2022-12-01T20:45:21.114Z,54.15
2022-12-01T20:47:51.888Z,41.72
2022-12-01T20:50:20.298Z,29.90
2022-12-01T20:52:48.585Z,30.13
2022-12-01T20:55:16.926Z,33.13
2022-12-01T20:57:45.638Z,32.78
2022-12-01T21:00:18.670Z,35.63
2022-12-01T21:02:48.160Z,37.05
2022-12-01T21:05:16.437Z,35.42
2022-12-01T21:07:44.951Z,36.45
2022-12-01T21:10:18.483Z,34.60
2022-12-01T21:13:09.447Z,36.50
2022-12-01T21:15:52.179Z,38.22
2022-12-01T21:18:23.430Z,40.05
2022-12-01T21:20:57.748Z,40.75
2022-12-01T21:23:28.328Z,44.67
2022-12-01T21:25:57.258Z,42.15
2022-12-01T21:28:27.109Z,57.55
2022-12-01T21:31:01.367Z,63.90
2022-12-01T21:33:33.367Z,61.90
2022-12-01T21:36:03.221Z,60.55
2022-12-01T21:38:33.239Z,60.83
2022-12-01T21:41:02.884Z,54.10
2022-12-01T21:43:37.945Z,54.70
2022-12-01T21:46:16.276Z,57.72
2022-12-01T21:48:46.110Z,55.88
2022-12-01T21:51:20.127Z,55.40
2022-12-01T21:53:49.203Z,54.38
2022-12-01T21:56:22.156Z,55.22
2022-12-01T21:58:52.893Z,54.55
2022-12-01T22:01:28.389Z,58.45
2022-12-01T22:04:01.790Z,55.38
2022-12-01T22:06:37.037Z,57.35
2022-12-01T22:09:20.715Z,60.13
2022-12-01T22:11:52.670Z,61.70
2022-12-01T22:14:23.030Z,58.75
2022-12-01T22:16:55.990Z,59.25
2022-12-01T22:19:28.852Z,59.10
2022-12-01T22:22:01.890Z,55.97
2022-12-01T22:24:45.009Z,51.65
2022-12-01T22:27:27.334Z,49.38
2022-12-01T22:29:59.166Z,43.47
2022-12-01T22:32:53.368Z,45.90
2022-12-01T22:35:30.137Z,44.33
2022-12-01T22:38:20.203Z,43.13
2022-12-01T22:40:56.063Z,42.28
2022-12-01T22:43:31.344Z,44.88
2022-12-01T22:46:11.610Z,45.30
2022-12-01T22:48:46.115Z,44.67
2022-12-01T22:51:23.891Z,43.40
2022-12-01T22:53:58.729Z,41.88
2022-12-01T22:56:40.547Z,42.53
2022-12-01T22:59:16.231Z,44.00
2022-12-01T23:01:50.180Z,41.38
2022-12-01T23:04:27.375Z,40.55
2022-12-01T23:06:59.678Z,37.28
2022-12-01T23:09:33.330Z,40.80
2022-12-01T23:12:07.106Z,42.80
2022-12-01T23:14:35.785Z,41.08
2022-12-01T23:17:08.286Z,40.08
2022-12-01T23:19:37.706Z,40.08
2022-12-01T23:22:05.865Z,40.78
2022-12-01T23:24:35.097Z,40.00
2022-12-01T23:27:03.252Z,39.38
2022-12-01T23:29:32.064Z,40.40
2022-12-01T23:32:00.259Z,40.05
2022-12-01T23:34:29.403Z,42.40
2022-12-01T23:36:58.813Z,41.08
2022-12-01T23:39:31.917Z,39.88
2022-12-01T23:42:00.339Z,39.28
2022-12-01T23:44:45.797Z,37.63
2022-12-01T23:47:19.023Z,37.00
2022-12-01T23:49:48.264Z,36.67
2022-12-01T23:52:21.521Z,39.03
2022-12-01T23:54:50.065Z,40.47
2022-12-01T23:57:23.853Z,37.33
2022-12-01T23:59:56.003Z,37.75
